createdAt,value
2023-02-03T00:02:31.341Z,102586.00
2023-02-03T00:05:18.133Z,102580.66
2023-02-03T00:08:05.710Z,102576.22
2023-02-03T00:10:52.149Z,102575.22
2023-02-03T00:13:37.986Z,102575.97
2023-02-03T00:16:23.845Z,102567.19
2023-02-03T00:19:09.571Z,102566.19
2023-02-03T00:21:56.247Z,102563.78
2023-02-03T00:24:43.294Z,102567.19
2023-02-03T00:27:29.057Z,102570.63
2023-02-03T00:30:14.996Z,102568.13
2023-02-03T00:33:01.495Z,102582.03
2023-02-03T00:35:47.348Z,102577.59
2023-02-03T00:38:33.022Z,102572.16
2023-02-03T00:41:20.331Z,102574.78
2023-02-03T00:44:06.449Z,102580.84
2023-02-03T00:46:52.283Z,102573.72
2023-02-03T00:49:37.971Z,102566.72
2023-02-03T00:52:23.783Z,102554.44
2023-02-03T00:55:09.619Z,102545.66
2023-02-03T00:57:56.726Z,102550.00
2023-02-03T01:00:42.544Z,102557.88
2023-02-03T01:03:28.219Z,102536.88
2023-02-03T01:06:15.282Z,102537.69
2023-02-03T01:09:02.259Z,102547.31
2023-02-03T01:11:48.198Z,102545.59
2023-02-03T01:14:35.297Z,102562.06
2023-02-03T01:17:23.644Z,102561.28
2023-02-03T01:20:12.197Z,102559.41
2023-02-03T01:22:58.241Z,102555.06
2023-02-03T01:25:43.978Z,102549.69
2023-02-03T01:28:29.769Z,102557.53
2023-02-03T01:31:17.585Z,102544.34
2023-02-03T01:34:04.335Z,102527.72
2023-02-03T01:36:50.058Z,102523.97
2023-02-03T01:39:36.053Z,102522.25
2023-02-03T01:42:22.132Z,102522.25
2023-02-03T01:45:08.199Z,102519.63
2023-02-03T01:47:56.228Z,102517.75
2023-02-03T01:50:42.115Z,102500.19
2023-02-03T01:53:27.805Z,102486.03
2023-02-03T01:56:14.389Z,102475.47
2023-02-03T01:59:00.873Z,102476.25
2023-02-03T02:01:47.060Z,102460.38
2023-02-03T02:04:35.514Z,102450.75
2023-02-03T02:07:21.211Z,102434.16
2023-02-03T02:10:07.398Z,102412.06
2023-02-03T02:12:53.303Z,102391.69
2023-02-03T02:15:41.875Z,102390.75
2023-02-03T02:18:36.698Z,102399.34
2023-02-03T02:21:27.316Z,102384.34
2023-02-03T02:24:18.346Z,102379.44
2023-02-03T02:27:06.680Z,102350.28
2023-02-03T02:30:01.012Z,102332.56
2023-02-03T02:33:01.472Z,102340.47
2023-02-03T02:35:50.919Z,102341.41
2023-02-03T02:38:41.913Z,102340.56
2023-02-03T02:41:29.322Z,102340.38
2023-02-03T02:44:17.174Z,102336.81
2023-02-03T02:47:04.426Z,102324.53
2023-02-03T02:49:53.461Z,102311.31
2023-02-03T02:52:40.482Z,102295.31
2023-02-03T02:55:28.643Z,102277.69
2023-02-03T02:58:18.668Z,102274.19
2023-02-03T03:01:04.826Z,102261.06
2023-02-03T03:03:50.730Z,102275.88
2023-02-03T03:06:38.690Z,102261.97
2023-02-03T03:09:25.461Z,102265.41
2023-02-03T03:12:13.522Z,102267.97
2023-02-03T03:15:00.765Z,102265.22
2023-02-03T03:17:48.451Z,102255.69
2023-02-03T03:20:34.536Z,102259.94
2023-02-03T03:23:22.904Z,102261.53
2023-02-03T03:26:10.878Z,102240.41
2023-02-03T03:28:58.574Z,102235.13
2023-02-03T03:31:44.682Z,102201.72
2023-02-03T03:34:30.955Z,102189.34
2023-02-03T03:37:17.748Z,102182.19
2023-02-03T03:40:07.953Z,102178.50
2023-02-03T03:42:54.635Z,102181.16
2023-02-03T03:45:42.322Z,102170.56
2023-02-03T03:48:29.017Z,102163.41
2023-02-03T03:51:16.276Z,102154.63
2023-02-03T03:54:03.118Z,102151.88
2023-02-03T03:56:51.590Z,102139.63
2023-02-03T03:59:38.610Z,102137.72
2023-02-03T04:02:24.560Z,102132.63
2023-02-03T04:05:11.178Z,102120.09
2023-02-03T04:07:57.008Z,102110.56
2023-02-03T04:10:43.405Z,102109.63
2023-02-03T04:13:30.578Z,102108.56
2023-02-03T04:16:16.534Z,102095.34
2023-02-03T04:19:02.028Z,102094.41
2023-02-03T04:21:48.518Z,102088.28
2023-02-03T04:24:34.212Z,102076.75
2023-02-03T04:27:19.880Z,102087.25
2023-02-03T04:30:07.812Z,102076.41
2023-02-03T04:32:53.517Z,102066.78
2023-02-03T04:35:39.374Z,102068.38
2023-02-03T04:38:25.131Z,102066.69
2023-02-03T04:41:10.905Z,102061.28
2023-02-03T04:43:56.767Z,102052.41
2023-02-03T04:46:43.946Z,102046.38
2023-02-03T04:49:29.712Z,102034.66
2023-02-03T04:52:15.852Z,102026.75
2023-02-03T04:55:01.582Z,102010.03
2023-02-03T04:57:47.421Z,102010.78
2023-02-03T05:00:33.674Z,102004.66
2023-02-03T05:03:20.770Z,101993.97
2023-02-03T05:06:06.827Z,101991.22
2023-02-03T05:08:52.803Z,101968.38
2023-02-03T05:11:38.674Z,101967.44
2023-02-03T05:14:24.529Z,101951.56
2023-02-03T05:17:10.249Z,101933.06
2023-02-03T05:19:57.278Z,101947.81
2023-02-03T05:22:43.036Z,101909.56
2023-02-03T05:25:28.729Z,101897.19
2023-02-03T05:28:14.548Z,101882.38
2023-02-03T05:31:01.380Z,101883.97
2023-02-03T05:33:47.032Z,101875.28
2023-02-03T05:36:34.220Z,101871.81
2023-02-03T05:39:19.904Z,101882.16
2023-02-03T05:42:04.754Z,101874.34
2023-02-03T05:44:50.903Z,101853.19
2023-02-03T05:47:36.863Z,101858.69
2023-02-03T05:50:22.819Z,101854.13
2023-02-03T05:53:10.205Z,101852.56
2023-02-03T05:55:55.915Z,101860.28
2023-02-03T05:58:41.834Z,101858.69
2023-02-03T06:01:27.606Z,101858.47
2023-02-03T06:04:13.355Z,101875.28
2023-02-03T06:06:59.189Z,101872.00
2023-02-03T06:09:46.354Z,101893.91
2023-02-03T06:12:32.054Z,101885.31
2023-02-03T06:15:18.096Z,101890.19
2023-02-03T06:18:04.228Z,101884.38
2023-02-03T06:20:50.759Z,101897.75
2023-02-03T06:23:36.653Z,101903.06
2023-02-03T06:26:23.854Z,101920.81
2023-02-03T06:29:09.824Z,101934.97
2023-02-03T06:31:55.823Z,101948.41
2023-02-03T06:34:42.034Z,101975.78
2023-02-03T06:37:27.803Z,101989.72
2023-02-03T06:40:13.927Z,102004.94
2023-02-03T06:43:01.281Z,102029.03
2023-02-03T06:45:47.844Z,102040.72
2023-02-03T06:48:33.601Z,102051.88
2023-02-03T06:51:19.458Z,102063.47
2023-02-03T06:54:05.575Z,102064.50
2023-02-03T06:56:51.523Z,102094.50
2023-02-03T06:59:39.217Z,102090.16
2023-02-03T07:02:25.010Z,102085.72
2023-02-03T07:05:10.764Z,102116.41
2023-02-03T07:07:57.122Z,102129.81
2023-02-03T07:10:43.118Z,102151.13
2023-02-03T07:13:28.905Z,102161.53
2023-02-03T07:16:16.501Z,102161.72
2023-02-03T07:19:02.664Z,102172.28
2023-02-03T07:21:48.439Z,102174.16
2023-02-03T07:24:34.306Z,102182.00
2023-02-03T07:27:20.306Z,102180.97
2023-02-03T07:30:06.891Z,102183.59
2023-02-03T07:32:55.316Z,102182.84
2023-02-03T07:35:41.343Z,102184.53
2023-02-03T07:38:27.751Z,102173.03
2023-02-03T07:41:13.801Z,102165.28
2023-02-03T07:43:59.582Z,102174.81
2023-02-03T07:46:45.566Z,102203.78
2023-02-03T07:49:33.219Z,102195.13
2023-02-03T07:52:21.029Z,102197.75
2023-02-03T07:55:08.291Z,102195.22
2023-02-03T07:57:54.547Z,102193.97
2023-02-03T08:00:40.493Z,102192.28
2023-02-03T08:03:26.412Z,102193.03
2023-02-03T08:06:13.936Z,102193.91
2023-02-03T08:08:59.698Z,102203.44
2023-02-03T08:11:45.470Z,102198.06
2023-02-03T08:14:31.345Z,102198.91
2023-02-03T08:17:17.120Z,102189.75
2023-02-03T08:20:02.968Z,102191.66
2023-02-03T08:22:49.920Z,102184.38
2023-02-03T08:25:35.696Z,102186.84
2023-02-03T08:28:21.645Z,102183.44
2023-02-03T08:31:11.277Z,102192.13
2023-02-03T08:33:57.856Z,102205.19
2023-02-03T08:36:44.472Z,102212.22
2023-02-03T08:39:32.301Z,102205.19
2023-02-03T08:42:18.329Z,102192.53
2023-02-03T08:45:05.246Z,102199.41
2023-02-03T08:47:51.494Z,102175.72
2023-02-03T08:50:37.219Z,102184.19
2023-02-03T08:53:22.901Z,102189.69
2023-02-03T08:56:10.886Z,102164.94
2023-02-03T08:58:56.862Z,102167.38
2023-02-03T09:01:44.698Z,102176.28
2023-02-03T09:04:30.446Z,102181.28
2023-02-03T09:07:16.984Z,102169.84
2023-02-03T09:10:03.132Z,102181.16
2023-02-03T09:12:50.190Z,102194.22
2023-02-03T09:15:35.970Z,102183.34
2023-02-03T09:18:21.958Z,102190.16
2023-02-03T09:21:08.658Z,102191.75
2023-02-03T09:23:54.777Z,102173.88
2023-02-03T09:26:40.655Z,102169.44
2023-02-03T09:29:28.080Z,102171.25
2023-02-03T09:32:15.507Z,102162.09
2023-02-03T09:35:01.751Z,102159.44
2023-02-03T09:37:48.763Z,102147.94
2023-02-03T09:40:35.614Z,102157.66
2023-02-03T09:43:25.315Z,102142.63
2023-02-03T09:46:14.143Z,102143.59
2023-02-03T09:49:00.959Z,102132.91
2023-02-03T09:51:49.284Z,102155.00
2023-02-03T09:54:38.640Z,102159.44
2023-02-03T09:57:25.393Z,102155.09
2023-02-03T10:00:15.582Z,102144.53
2023-02-03T10:03:05.038Z,102157.56
2023-02-03T10:05:55.460Z,102155.00
2023-02-03T10:08:48.892Z,102147.72
2023-02-03T10:11:49.674Z,102152.81
2023-02-03T10:14:39.364Z,102159.25
2023-02-03T10:17:29.040Z,102152.81
2023-02-03T10:20:17.683Z,102171.22
2023-02-03T10:23:04.018Z,102180.13
2023-02-03T10:25:57.142Z,102195.69
2023-02-03T10:28:45.583Z,102177.28
2023-02-03T10:31:33.482Z,102197.59
2023-02-03T10:34:20.249Z,102213.47
2023-02-03T10:37:10.488Z,102215.94
2023-02-03T10:39:56.618Z,102220.56
2023-02-03T10:42:56.480Z,102234.63
2023-02-03T10:45:42.303Z,102230.28
2023-02-03T10:48:28.419Z,102237.13
2023-02-03T10:51:16.787Z,102233.41
2023-02-03T10:54:03.916Z,102222.75
2023-02-03T10:56:50.036Z,102227.09
2023-02-03T10:59:37.201Z,102225.19
2023-02-03T11:02:25.190Z,102222.34
2023-02-03T11:05:12.368Z,102224.59
2023-02-03T11:07:58.300Z,102236.88
2023-02-03T11:10:45.519Z,102234.06
2023-02-03T11:13:31.587Z,102254.09
2023-02-03T11:16:17.745Z,102257.59
2023-02-03T11:19:03.763Z,102255.59
2023-02-03T11:21:49.981Z,102264.06
2023-02-03T11:24:38.256Z,102256.72
2023-02-03T11:27:27.719Z,102263.81
2023-02-03T11:30:15.805Z,102241.56
2023-02-03T11:33:01.909Z,102223.03
2023-02-03T11:35:54.326Z,102223.59
2023-02-03T11:38:42.254Z,102217.88
2023-02-03T11:41:30.867Z,102201.81
2023-02-03T11:44:22.498Z,102186.69
2023-02-03T11:47:08.752Z,102178.53
2023-02-03T11:50:06.442Z,102167.88
2023-02-03T11:52:58.863Z,102150.25
2023-02-03T11:55:47.513Z,102126.78
2023-02-03T11:58:44.649Z,102123.84
2023-02-03T12:01:43.007Z,102119.16
2023-02-03T12:04:47.092Z,102093.75
2023-02-03T12:07:39.816Z,102063.44
2023-02-03T12:10:29.256Z,102033.88
2023-02-03T12:13:23.740Z,102017.44
2023-02-03T12:16:12.972Z,102000.50
2023-02-03T12:19:04.262Z,101976.31
2023-02-03T12:21:51.035Z,101948.75
2023-02-03T12:24:38.292Z,101911.03
2023-02-03T12:27:27.692Z,101883.13
2023-02-03T12:30:15.157Z,101843.38
2023-02-03T12:33:01.699Z,101797.75
2023-02-03T12:35:49.858Z,101762.59
2023-02-03T12:38:36.413Z,101712.47
2023-02-03T12:41:22.805Z,101644.63
2023-02-03T12:44:09.701Z,101577.31
2023-02-03T12:46:57.307Z,101522.50
2023-02-03T12:49:43.367Z,101470.81
2023-02-03T12:52:31.631Z,101399.53
2023-02-03T12:55:19.794Z,101324.25
2023-02-03T12:58:06.444Z,101264.28
2023-02-03T13:00:53.074Z,101247.03
2023-02-03T13:03:40.304Z,101212.09
2023-02-03T13:06:27.505Z,101171.38
2023-02-03T13:09:19.615Z,101162.72
2023-02-03T13:12:07.768Z,101134.41
2023-02-03T13:14:54.154Z,101130.97
2023-02-03T13:17:42.162Z,101117.19
2023-02-03T13:20:31.257Z,101107.44
2023-02-03T13:23:17.412Z,101116.09
2023-02-03T13:26:11.690Z,101108.00
2023-02-03T13:29:04.137Z,101108.00
2023-02-03T13:31:51.194Z,101103.53
2023-02-03T13:34:40.365Z,101108.84
2023-02-03T13:37:33.461Z,101095.03
2023-02-03T13:40:21.671Z,101097.22
2023-02-03T13:43:12.255Z,101103.63
2023-02-03T13:45:58.313Z,101111.28
2023-02-03T13:48:44.576Z,101121.41
2023-02-03T13:51:34.668Z,101139.31
2023-02-03T13:54:23.237Z,101154.63
2023-02-03T13:57:22.370Z,101166.34
2023-02-03T14:00:32.209Z,101175.81
2023-02-03T14:03:18.409Z,101189.34
2023-02-03T14:06:04.769Z,101190.88
2023-02-03T14:08:52.067Z,101196.19
2023-02-03T14:11:41.139Z,101201.28
2023-02-03T14:14:43.576Z,101206.84
2023-02-03T14:18:02.750Z,101196.69
2023-02-03T14:20:57.246Z,101213.75
2023-02-03T14:23:45.326Z,101210.25
2023-02-03T14:26:33.216Z,101220.00
2023-02-03T14:29:25.996Z,101223.84
2023-02-03T14:32:12.320Z,101218.94
2023-02-03T14:34:58.823Z,101237.34
2023-02-03T14:37:53.002Z,101239.16
2023-02-03T14:40:39.577Z,101249.44
2023-02-03T14:43:28.083Z,101263.28
2023-02-03T14:46:32.086Z,101260.50
2023-02-03T14:49:23.072Z,101273.66
2023-02-03T14:52:13.949Z,101265.09
2023-02-03T14:55:14.848Z,101270.16
2023-02-03T14:58:02.496Z,101271.94
2023-02-03T15:00:48.993Z,101283.50
2023-02-03T15:03:35.330Z,101290.72
2023-02-03T15:06:36.467Z,101289.28
2023-02-03T15:09:24.505Z,101302.06
2023-02-03T15:12:20.271Z,101295.41
2023-02-03T15:15:19.045Z,101301.09
2023-02-03T15:18:19.789Z,101298.22
2023-02-03T15:21:06.137Z,101310.94
2023-02-03T15:23:52.015Z,101322.59
2023-02-03T15:26:45.913Z,101320.44
2023-02-03T15:29:32.396Z,101331.59
2023-02-03T15:32:20.340Z,101339.66
2023-02-03T15:35:07.102Z,101339.28
2023-02-03T15:37:53.927Z,101339.53
2023-02-03T15:40:42.116Z,101342.63
2023-02-03T15:43:29.838Z,101350.78
2023-02-03T15:46:18.659Z,101354.50
2023-02-03T15:49:07.256Z,101356.53
2023-02-03T15:51:56.552Z,101355.94
2023-02-03T15:54:42.933Z,101370.44
2023-02-03T15:57:29.484Z,101374.88
2023-02-03T16:00:26.613Z,101393.00
2023-02-03T16:03:16.001Z,101383.63
2023-02-03T16:06:08.222Z,101387.47
2023-02-03T16:08:54.683Z,101394.97
2023-02-03T16:11:41.597Z,101391.94
2023-02-03T16:14:34.366Z,101395.56
2023-02-03T16:17:24.702Z,101417.03
2023-02-03T16:20:24.508Z,101416.06
2023-02-03T16:23:19.977Z,101441.13
2023-02-03T16:26:18.404Z,101438.69
2023-02-03T16:29:31.863Z,101455.72
2023-02-03T16:32:36.122Z,101443.69
2023-02-03T16:35:39.944Z,101442.84
2023-02-03T16:38:44.924Z,101447.28
2023-02-03T16:41:48.781Z,101440.53
2023-02-03T16:44:52.523Z,101451.09
2023-02-03T16:47:56.612Z,101459.22
2023-02-03T16:50:53.413Z,101477.50
2023-02-03T16:53:41.142Z,101466.53
2023-02-03T16:56:27.252Z,101471.19
2023-02-03T16:59:13.116Z,101475.75
2023-02-03T17:01:59.143Z,101472.03
2023-02-03T17:04:44.990Z,101466.13
2023-02-03T17:07:30.725Z,101486.19
2023-02-03T17:10:18.152Z,101503.00
2023-02-03T17:13:04.724Z,101494.97
2023-02-03T17:15:52.508Z,101486.41
2023-02-03T17:18:39.196Z,101483.66
2023-02-03T17:21:25.887Z,101476.69
2023-02-03T17:24:12.228Z,101483.78
2023-02-03T17:26:59.418Z,101483.78
2023-02-03T17:29:45.184Z,101482.09
2023-02-03T17:32:31.103Z,101492.72
2023-02-03T17:35:17.097Z,101485.97
2023-02-03T17:38:02.858Z,101486.81
2023-02-03T17:55:50.205Z,101534.16
2023-02-03T17:58:35.949Z,101538.50
2023-02-03T18:01:24.918Z,101544.59
2023-02-03T18:04:11.010Z,101557.19
2023-02-03T18:06:56.762Z,101551.25
2023-02-03T18:09:42.630Z,101554.19
2023-02-03T18:12:29.920Z,101558.63
2023-02-03T18:15:16.570Z,101564.75
2023-02-03T18:18:03.729Z,101579.97
2023-02-03T18:20:49.480Z,101578.28
2023-02-03T18:23:35.274Z,101587.25
2023-02-03T18:26:21.502Z,101586.09
2023-02-03T18:29:07.208Z,101592.41
2023-02-03T18:31:52.866Z,101593.25
2023-02-03T18:34:40.110Z,101582.91
2023-02-03T18:37:26.163Z,101582.06
2023-02-03T18:40:12.198Z,101589.25
2023-02-03T18:42:58.379Z,101583.13
2023-02-03T18:45:44.378Z,101589.25
2023-02-03T18:48:30.045Z,101604.25
2023-02-03T18:51:18.220Z,101626.19
2023-02-03T18:54:04.360Z,101627.16
2023-02-03T18:56:50.327Z,101631.56
2023-02-03T18:59:36.778Z,101645.91
2023-02-03T19:02:25.564Z,101662.91
2023-02-03T19:05:11.621Z,101678.94
2023-02-03T19:07:59.073Z,101713.34
2023-02-03T19:10:44.903Z,101728.53
2023-02-03T19:13:30.632Z,101732.97
2023-02-03T19:16:17.390Z,101755.28
2023-02-03T19:19:03.308Z,101788.09
2023-02-03T19:21:49.526Z,101812.03
2023-02-03T19:24:36.700Z,101816.53
2023-02-03T19:27:22.599Z,101827.28
2023-02-03T19:30:09.757Z,101854.41
2023-02-03T19:32:55.847Z,101852.09
2023-02-03T19:35:41.946Z,101878.59
2023-02-03T19:38:28.038Z,101894.78
2023-02-03T19:41:15.331Z,101903.63
2023-02-03T19:44:01.051Z,101920.75
2023-02-03T19:46:46.933Z,101937.59
2023-02-03T19:49:33.192Z,101964.91
2023-02-03T19:52:18.891Z,101977.44
2023-02-03T19:55:05.146Z,101991.66
2023-02-03T19:57:53.552Z,102012.75
2023-02-03T20:00:39.191Z,102019.91
2023-02-03T20:03:25.098Z,102029.50
2023-02-03T20:06:11.246Z,102038.69
2023-02-03T20:08:59.007Z,102056.13
2023-02-03T20:11:44.768Z,102068.47
2023-02-03T20:14:32.495Z,102079.78
2023-02-03T20:17:18.654Z,102096.69
2023-02-03T20:20:05.074Z,102118.56
2023-02-03T20:22:50.934Z,102119.41
2023-02-03T20:25:36.697Z,102146.63
2023-02-03T20:28:23.066Z,102152.03
2023-02-03T20:31:10.423Z,102160.75
2023-02-03T20:33:56.578Z,102179.97
2023-02-03T20:36:42.938Z,102175.63
2023-02-03T20:39:28.687Z,102188.81
2023-02-03T20:42:15.502Z,102183.47
2023-02-03T20:45:01.335Z,102193.00
2023-02-03T20:47:48.508Z,102203.53
2023-02-03T20:50:42.042Z,102208.81
2023-02-03T20:53:28.742Z,102218.59
2023-02-03T20:56:15.171Z,102222.00
2023-02-03T20:59:00.969Z,102213.31
2023-02-03T21:01:47.219Z,102225.72
2023-02-03T21:04:52.169Z,102227.44
2023-02-03T21:07:39.158Z,102226.50
2023-02-03T21:10:25.563Z,102221.31
2023-02-03T21:13:19.794Z,102218.75
2023-02-03T21:16:12.306Z,102215.31
2023-02-03T21:19:00.255Z,102205.72
2023-02-03T21:21:47.902Z,102213.63
2023-02-03T21:24:35.490Z,102191.69
2023-02-03T21:27:23.772Z,102203.06
2023-02-03T21:30:22.479Z,102197.81
2023-02-03T21:33:26.638Z,102204.00
2023-02-03T21:36:15.178Z,102197.81
2023-02-03T21:39:02.503Z,102185.47
2023-02-03T21:41:48.388Z,102181.84
2023-02-03T21:44:35.824Z,102187.19
2023-02-03T21:47:22.294Z,102190.53
2023-02-03T21:50:23.026Z,102221.31
2023-02-03T21:53:18.755Z,102213.50
2023-02-03T21:56:15.181Z,102218.75
2023-02-03T21:59:01.137Z,102220.28
2023-02-03T22:01:47.119Z,102222.94
2023-02-03T22:04:33.157Z,102225.41
2023-02-03T22:07:19.353Z,102230.66
2023-02-03T22:10:05.316Z,102232.19
2023-02-03T22:12:52.412Z,102230.41
2023-02-03T22:15:38.581Z,102221.81
2023-02-03T22:18:24.625Z,102206.84
2023-02-03T22:21:10.704Z,102187.53
2023-02-03T22:23:56.500Z,102177.06
2023-02-03T22:26:42.272Z,102163.97
2023-02-03T22:29:29.447Z,102160.50
2023-02-03T22:32:15.285Z,102157.00
2023-02-03T22:35:01.094Z,102160.59
2023-02-03T22:37:47.284Z,102163.22
2023-02-03T22:40:33.173Z,102144.84
2023-02-03T22:43:19.501Z,102144.94
2023-02-03T22:46:07.077Z,102143.91
2023-02-03T22:48:53.093Z,102158.03
2023-02-03T22:51:39.995Z,102153.44
2023-02-03T22:54:26.226Z,102161.34
2023-02-03T22:57:12.403Z,102170.38
2023-02-03T22:59:58.373Z,102175.47
2023-02-03T23:02:45.823Z,102183.56
2023-02-03T23:05:32.082Z,102214.41
2023-02-03T23:08:18.550Z,102237.13
2023-02-03T23:11:04.581Z,102274.91
2023-02-03T23:13:50.332Z,102299.66
2023-02-03T23:16:36.550Z,102319.25
2023-02-03T23:19:24.645Z,102342.81
2023-02-03T23:22:10.780Z,102381.38
2023-02-03T23:24:56.634Z,102411.34
2023-02-03T23:27:42.642Z,102464.38
2023-02-03T23:30:29.510Z,102497.19
2023-02-03T23:33:15.440Z,102539.50
2023-02-03T23:36:01.464Z,102572.97
2023-02-03T23:38:47.360Z,102606.63
2023-02-03T23:41:33.286Z,102633.28
2023-02-03T23:44:19.228Z,102641.56
2023-02-03T23:47:05.146Z,102664.50
2023-02-03T23:49:50.875Z,102701.72
2023-02-03T23:52:38.065Z,102721.94
2023-02-03T23:55:23.820Z,102744.25
2023-02-03T23:58:09.530Z,102775.19
